createdAt,value
2018-11-01T00:04:03.672Z,98391.03
2018-11-01T00:09:07.599Z,98380.41
2018-11-01T00:14:09.951Z,98385.09
2018-11-01T00:19:12.288Z,98394.89
2018-11-01T00:24:15.382Z,98394.02
2018-11-01T00:29:17.740Z,98403.88
2018-11-01T00:34:20.132Z,98394.72
2018-11-01T00:39:22.473Z,98383.25
2018-11-01T00:44:24.804Z,98388.86
2018-11-01T00:49:27.132Z,98403.98
2018-11-01T00:54:29.464Z,98406.33
2018-11-01T00:59:31.788Z,98417.48
2018-11-01T01:04:34.887Z,98430.75
2018-11-01T01:09:37.231Z,98424.64
2018-11-01T01:14:39.576Z,98404.37
2018-11-01T01:19:41.920Z,98386.50
2018-11-01T01:24:44.259Z,98392.20
2018-11-01T01:29:46.629Z,98399.45
2018-11-01T01:34:49.010Z,98409.81
2018-11-01T01:39:51.371Z,98408.69
2018-11-01T01:44:53.701Z,98402.63
2018-11-01T01:49:56.024Z,98400.97
2018-11-01T01:54:58.352Z,98382.16
2018-11-01T02:00:00.712Z,98373.62
2018-11-01T02:05:04.098Z,98375.94
2018-11-01T02:10:08.277Z,98362.33
2018-11-01T02:15:14.758Z,98360.38
2018-11-01T02:20:18.507Z,98359.73
2018-11-01T02:25:20.879Z,98341.27
2018-11-01T02:30:23.260Z,98350.92
2018-11-01T02:35:25.712Z,98325.40
2018-11-01T02:40:28.076Z,98331.61
2018-11-01T02:45:30.546Z,98331.48
2018-11-01T02:50:32.951Z,98321.70
2018-11-01T02:55:35.277Z,98326.94
2018-11-01T03:00:37.622Z,98337.71
2018-11-01T03:05:40.048Z,98337.39
2018-11-01T03:10:42.449Z,98340.98
2018-11-01T03:15:44.776Z,98311.87
2018-11-01T03:20:47.123Z,98298.59
2018-11-01T03:25:49.471Z,98286.31
2018-11-01T03:30:51.848Z,98307.27
2018-11-01T03:35:55.341Z,98320.88
2018-11-01T03:40:57.721Z,98309.28
2018-11-01T03:46:00.104Z,98306.66
2018-11-01T03:51:02.487Z,98290.30
2018-11-01T03:56:04.934Z,98281.94
2018-11-01T04:01:07.364Z,98277.87
2018-11-01T04:06:09.747Z,98289.97
2018-11-01T04:11:12.316Z,98302.73
2018-11-01T04:16:14.892Z,98300.13
2018-11-01T04:21:17.264Z,98303.70
2018-11-01T04:26:19.537Z,98278.03
2018-11-01T04:31:22.001Z,98260.06
2018-11-01T04:36:24.815Z,98235.53
2018-11-01T04:41:27.082Z,98248.95
2018-11-01T04:46:29.441Z,98257.63
2018-11-01T04:51:31.838Z,98270.18
2018-11-01T04:56:34.414Z,98233.09
2018-11-01T05:01:36.823Z,98203.00
2018-11-01T05:06:39.148Z,98193.19
2018-11-01T05:11:41.423Z,98205.62
2018-11-01T05:16:43.781Z,98198.44
2018-11-01T05:21:46.149Z,98178.70
2018-11-01T05:26:48.543Z,98173.93
2018-11-01T05:31:50.915Z,98179.75
2018-11-01T05:36:53.294Z,98177.81
2018-11-01T05:41:55.573Z,98172.27
2018-11-01T05:46:57.873Z,98180.11
2018-11-01T05:52:00.131Z,98203.19
2018-11-01T05:57:02.424Z,98214.96
2018-11-01T06:02:12.102Z,98225.90
2018-11-01T06:07:16.079Z,98234.38
2018-11-01T06:12:18.347Z,98255.48
2018-11-01T06:17:20.642Z,98250.73
2018-11-01T06:22:22.981Z,98242.58
2018-11-01T06:27:25.244Z,98221.94
2018-11-01T06:32:27.563Z,98191.10
2018-11-01T06:37:29.958Z,98182.94
2018-11-01T06:42:32.238Z,98166.61
2018-11-01T06:47:34.514Z,98166.62
2018-11-01T06:52:37.255Z,98164.13
2018-11-01T06:57:39.627Z,98152.34
2018-11-01T07:02:42.124Z,98150.23
2018-11-01T07:07:44.511Z,98146.34
2018-11-01T07:12:46.761Z,98131.15
2018-11-01T07:17:49.251Z,98139.00
2018-11-01T07:22:51.546Z,98128.81
2018-11-01T07:27:54.132Z,98116.89
2018-11-01T07:32:56.581Z,98121.13
2018-11-01T07:37:58.930Z,98107.79
2018-11-01T07:43:01.321Z,98102.70
2018-11-01T07:48:03.678Z,98103.91
2018-11-01T07:53:06.019Z,98110.04
2018-11-01T07:58:08.709Z,98109.34
2018-11-01T08:03:11.134Z,98100.38
2018-11-01T08:08:13.683Z,98101.06
2018-11-01T08:13:15.980Z,98102.64
2018-11-01T08:18:18.306Z,98086.23
2018-11-01T08:23:20.899Z,98103.89
2018-11-01T08:28:23.189Z,98097.38
2018-11-01T08:33:25.477Z,98100.41
2018-11-01T08:38:27.821Z,98097.78
2018-11-01T08:43:30.185Z,98092.17
2018-11-01T08:48:32.474Z,98078.59
2018-11-01T08:53:34.779Z,98061.45
2018-11-01T08:58:37.059Z,98070.89
2018-11-01T09:03:39.433Z,98070.44
2018-11-01T09:08:41.726Z,98058.95
2018-11-01T09:13:44.002Z,98055.23
2018-11-01T09:18:46.361Z,98061.66
2018-11-01T09:23:48.623Z,98045.96
2018-11-01T09:28:50.913Z,98052.52
2018-11-01T09:33:53.238Z,98041.87
2018-11-01T09:38:55.602Z,98046.87
2018-11-01T09:43:58.753Z,98030.03
2018-11-01T09:49:01.047Z,98030.41
2018-11-01T09:54:03.461Z,98030.55
2018-11-01T09:59:05.931Z,98034.64
2018-11-01T10:04:08.827Z,98028.72
2018-11-01T10:09:12.361Z,98010.13
2018-11-01T10:14:14.742Z,98004.52
2018-11-01T10:19:17.031Z,98007.34
2018-11-01T10:24:19.331Z,97995.56
2018-11-01T10:29:21.667Z,98003.22
2018-11-01T10:34:25.013Z,98011.48
2018-11-01T10:39:27.349Z,98001.01
2018-11-01T10:44:29.647Z,98006.62
2018-11-01T10:49:31.957Z,97997.05
2018-11-01T10:59:28.972Z,97998.34
2018-11-01T11:04:31.249Z,97989.97
2018-11-01T11:09:33.636Z,98009.56
2018-11-01T11:14:36.251Z,98016.61
2018-11-01T11:19:38.513Z,98005.05
2018-11-01T11:24:40.794Z,97986.57
2018-11-01T11:29:43.206Z,97973.03
2018-11-01T11:34:45.462Z,97960.22
2018-11-01T11:39:47.857Z,97960.22
2018-11-01T11:44:50.054Z,97970.66
2018-11-01T11:49:52.331Z,97972.73
2018-11-01T11:54:54.606Z,97953.94
2018-11-01T11:59:56.882Z,97926.02
2018-11-01T12:04:59.157Z,97907.34
2018-11-01T12:10:01.470Z,97895.25
2018-11-01T12:15:03.821Z,97889.16
2018-11-01T12:20:07.695Z,97893.25
2018-11-01T12:25:10.578Z,97882.81
2018-11-01T12:30:12.923Z,97882.30
2018-11-01T12:35:15.232Z,97896.89
2018-11-01T12:40:17.608Z,97873.83
2018-11-01T12:45:20.090Z,97861.25
2018-11-01T12:50:22.441Z,97843.20
2018-11-01T12:55:24.735Z,97826.30
2018-11-01T13:00:27.054Z,97834.47
2018-11-01T13:05:29.419Z,97839.88
2018-11-01T13:10:32.160Z,97847.06
2018-11-01T13:15:34.470Z,97860.53
2018-11-01T13:20:36.757Z,97872.77
2018-11-01T13:25:39.059Z,97863.80
2018-11-01T13:30:41.388Z,97884.45
2018-11-01T13:35:43.759Z,97897.34
2018-11-01T13:40:46.431Z,97886.02
2018-11-01T13:45:48.369Z,97867.47
2018-11-01T13:50:50.655Z,97866.17
2018-11-01T13:55:52.969Z,97878.48
2018-11-01T14:00:55.370Z,97882.09
2018-11-01T14:05:57.672Z,97904.63
2018-11-01T14:11:00.019Z,97897.20
2018-11-01T14:16:02.365Z,97891.66
2018-11-01T14:21:04.645Z,97881.48
2018-11-01T14:26:06.931Z,97875.67
2018-11-01T14:31:09.316Z,97874.72
2018-11-01T14:36:11.563Z,97863.91
2018-11-01T14:41:13.897Z,97848.18
2018-11-01T14:46:16.186Z,97850.58
2018-11-01T14:51:18.465Z,97862.97
2018-11-01T14:56:22.116Z,97870.28
2018-11-01T15:01:23.085Z,97867.91
2018-11-01T15:06:25.404Z,97859.74
2018-11-01T15:11:27.786Z,97864.72
2018-11-01T15:16:30.073Z,97874.90
2018-11-01T15:21:32.355Z,97872.28
2018-11-01T15:26:34.662Z,97873.09
2018-11-01T15:31:37.019Z,97876.95
2018-11-01T15:36:39.351Z,97884.64
2018-11-01T15:41:42.086Z,97874.04
2018-11-01T15:46:44.386Z,97885.48
2018-11-01T15:51:46.702Z,97904.37
2018-11-01T15:56:49.014Z,97916.69
2018-11-01T16:01:51.547Z,97922.62
2018-11-01T16:06:54.030Z,97933.03
2018-11-01T16:11:56.610Z,97939.58
2018-11-01T16:16:58.938Z,97940.97
2018-11-01T16:22:01.914Z,97951.03
2018-11-01T16:27:05.286Z,97963.83
2018-11-01T16:32:08.576Z,97965.63
2018-11-01T16:37:12.029Z,97977.77
2018-11-01T16:42:15.597Z,97979.36
2018-11-01T16:47:19.092Z,97976.92
2018-11-01T16:52:21.989Z,97985.72
2018-11-01T16:57:25.216Z,97994.69
2018-11-01T17:02:28.635Z,98002.53
2018-11-01T17:07:31.105Z,98014.15
2018-11-01T17:12:33.903Z,98012.69
2018-11-01T17:17:37.989Z,98007.61
2018-11-01T17:22:41.070Z,98018.86
2018-11-01T17:27:43.428Z,98036.44
2018-11-01T17:32:48.093Z,98052.18
2018-11-01T17:37:50.516Z,98063.91
2018-11-01T17:42:52.989Z,98063.36
2018-11-01T17:47:55.416Z,98063.34
2018-11-01T17:52:57.776Z,98075.00
2018-11-01T17:58:00.091Z,98076.36
2018-11-01T18:03:02.825Z,98070.28
2018-11-01T18:08:05.336Z,98086.72
2018-11-01T18:13:07.814Z,98097.45
2018-11-01T18:18:10.218Z,98108.65
2018-11-01T18:23:12.615Z,98102.61
2018-11-01T18:28:15.602Z,98106.24
2018-11-01T18:33:17.904Z,98102.16
2018-11-01T18:38:20.760Z,98113.89
2018-11-01T18:43:23.134Z,98125.95
2018-11-01T18:48:25.480Z,98133.23
2018-11-01T18:53:27.790Z,98140.21
2018-11-01T18:58:30.078Z,98131.44
2018-11-01T19:03:32.733Z,98127.58
2018-11-01T19:11:29.581Z,98122.12
2018-11-01T19:16:31.926Z,98142.22
2018-11-01T19:21:34.327Z,98147.80
2018-11-01T19:26:36.647Z,98160.70
2018-11-01T19:31:39.646Z,98178.35
2018-11-01T19:36:41.977Z,98188.36
2018-11-01T19:41:44.265Z,98192.91
2018-11-01T19:46:46.604Z,98206.81
2018-11-01T19:51:48.897Z,98233.78
2018-11-01T19:56:51.228Z,98224.16
2018-11-01T20:01:53.617Z,98244.02
2018-11-01T20:06:55.913Z,98243.23
2018-11-01T20:11:58.289Z,98250.30
2018-11-01T20:17:00.615Z,98248.15
2018-11-01T20:22:02.927Z,98271.94
2018-11-01T20:27:06.371Z,98282.81
2018-11-01T20:32:08.682Z,98295.30
2018-11-01T20:37:11.111Z,98308.83
2018-11-01T20:42:13.364Z,98297.09
2018-11-01T20:47:15.663Z,98304.80
2018-11-01T20:52:17.964Z,98304.83
2018-11-01T20:57:20.334Z,98313.32
2018-11-01T21:02:22.518Z,98309.44
2018-11-01T21:07:24.814Z,98316.80
2018-11-01T21:12:27.196Z,98321.14
2018-11-01T21:17:29.746Z,98320.39
2018-11-01T21:22:32.023Z,98328.76
2018-11-01T21:27:34.301Z,98324.13
2018-11-01T21:32:36.646Z,98316.77
2018-11-01T21:37:38.944Z,98325.25
2018-11-01T21:42:41.234Z,98315.91
2018-11-01T21:47:43.569Z,98323.62
2018-11-01T21:52:45.857Z,98314.88
2018-11-01T21:57:48.153Z,98351.48
2018-11-01T22:02:50.533Z,98364.81
2018-11-01T22:07:54.189Z,98368.18
2018-11-01T22:12:56.623Z,98376.19
2018-11-01T22:17:59.104Z,98395.94
2018-11-01T22:23:01.407Z,98408.69
2018-11-01T22:28:04.250Z,98426.83
2018-11-01T22:33:06.619Z,98433.52
2018-11-01T22:38:08.923Z,98422.22
2018-11-01T22:43:11.242Z,98419.16
2018-11-01T22:48:13.899Z,98420.31
2018-11-01T22:53:16.217Z,98432.61
2018-11-01T22:58:18.507Z,98436.16
2018-11-01T23:03:20.800Z,98439.30
2018-11-01T23:08:23.123Z,98443.24
2018-11-01T23:13:25.418Z,98434.86
2018-11-01T23:18:27.770Z,98426.97
2018-11-01T23:23:30.074Z,98405.95
2018-11-01T23:28:32.398Z,98396.16
2018-11-01T23:33:34.724Z,98387.07
2018-11-01T23:38:42.923Z,98390.14
2018-11-01T23:43:50.949Z,98391.17
2018-11-01T23:49:01.199Z,98402.88
2018-11-01T23:54:03.565Z,98411.59
2018-11-01T23:59:05.871Z,98414.86
